KUL weather

Kuala Lumpur International Airport
Kuala Lumpur, Wilayah Persekutuan Kuala Lumpur, Malaysia

Public forecast

Using degrees Celsius for public forecast. Weather courtesy of forecast.io.

Current aviation weather report (METAR) for Kuala Lumpur International Airport

Retrieved 2019/10/19 20:30 UTC (17 minutes ago):

WMKK 192030Z VRB02KT 5000 BR FEW030 25/24 Q1009 NOSIG

Aviation forecast (TAF) for Kuala Lumpur International Airport

Retrieved 2019/10/19 18:08 UTC (3 hours ago):

TAF WMKK 191700Z 1918/2100 VRB03KT 7000 FEW030 BECMG 2000/2002 19006KT 9999 FEW017CB TEMPO 2008/2012 10010KT 3000 TSRA FEW010 FEW016CB SCT018